createdAt,value
2022-07-29T00:02:07.376Z,1.30
2022-07-29T00:04:35.913Z,1.40
2022-07-29T00:07:03.111Z,1.48
2022-07-29T00:09:29.371Z,1.30
2022-07-29T00:11:58.793Z,1.30
2022-07-29T00:14:25.542Z,1.50
2022-07-29T00:16:52.197Z,1.45
2022-07-29T00:19:18.400Z,1.42
2022-07-29T00:21:44.673Z,1.58
2022-07-29T00:24:10.799Z,1.25
2022-07-29T00:26:37.032Z,1.52
2022-07-29T00:29:32.934Z,1.40
2022-07-29T00:31:51.193Z,2.67
2022-07-29T00:34:36.466Z,1.70
2022-07-29T00:37:03.054Z,1.40
2022-07-29T00:39:29.769Z,1.60
2022-07-29T00:41:56.085Z,1.33
2022-07-29T00:44:22.232Z,1.30
2022-07-29T00:46:48.351Z,1.67
2022-07-29T00:49:14.539Z,1.92
2022-07-29T00:51:41.362Z,1.50
2022-07-29T00:54:07.867Z,1.70
2022-07-29T00:56:34.425Z,1.42
2022-07-29T00:59:00.888Z,1.20
2022-07-29T01:01:28.703Z,1.50
2022-07-29T01:03:55.072Z,1.33
2022-07-29T01:06:21.571Z,1.60
2022-07-29T01:08:49.073Z,1.50
2022-07-29T01:11:17.307Z,1.45
2022-07-29T01:13:46.242Z,1.40
2022-07-29T01:16:42.407Z,1.45
2022-07-29T01:19:23.846Z,1.60
2022-07-29T01:22:00.017Z,1.35
2022-07-29T01:24:44.777Z,1.52
2022-07-29T01:27:52.891Z,1.20
2022-07-29T01:30:19.288Z,1.30
2022-07-29T01:32:51.977Z,1.80
2022-07-29T01:35:26.437Z,1.50
2022-07-29T01:38:25.961Z,1.48
2022-07-29T01:40:57.696Z,1.40
2022-07-29T01:43:52.005Z,1.65
2022-07-29T01:46:30.754Z,1.67
2022-07-29T01:49:11.076Z,1.98
2022-07-29T01:51:43.747Z,1.77
2022-07-29T01:54:37.697Z,1.38
2022-07-29T01:57:07.134Z,1.25
2022-07-29T01:59:35.341Z,1.73
2022-07-29T02:02:03.203Z,1.85
2022-07-29T02:04:32.362Z,1.77
2022-07-29T02:07:03.985Z,1.77
2022-07-29T02:09:31.870Z,2.00
2022-07-29T02:11:59.475Z,1.70
2022-07-29T02:14:28.998Z,1.77
2022-07-29T02:16:58.573Z,2.03
2022-07-29T02:19:28.083Z,1.92
2022-07-29T02:21:56.523Z,2.25
2022-07-29T02:24:24.787Z,2.05
2022-07-29T02:26:53.209Z,1.70
2022-07-29T02:29:23.169Z,2.20
2022-07-29T02:31:50.837Z,1.95
2022-07-29T02:34:19.061Z,2.08
2022-07-29T02:36:46.693Z,2.22
2022-07-29T02:39:17.510Z,2.05
2022-07-29T02:41:59.568Z,2.22
2022-07-29T02:44:29.024Z,2.15
2022-07-29T02:47:19.599Z,2.08
2022-07-29T02:50:01.711Z,2.20
2022-07-29T02:52:52.752Z,2.17
2022-07-29T02:55:37.261Z,2.38
2022-07-29T02:58:23.167Z,2.00
2022-07-29T03:00:52.943Z,2.03
2022-07-29T03:03:21.528Z,2.40
2022-07-29T03:05:47.666Z,2.50
2022-07-29T03:08:16.138Z,2.00
2022-07-29T03:10:45.894Z,2.28
2022-07-29T03:13:13.401Z,2.30
2022-07-29T03:15:39.904Z,1.83
2022-07-29T03:18:06.789Z,2.17
2022-07-29T03:20:32.968Z,1.95
2022-07-29T03:22:59.193Z,2.15
2022-07-29T03:25:27.334Z,2.17
2022-07-29T03:27:53.514Z,2.10
2022-07-29T03:30:22.317Z,2.35
2022-07-29T03:32:52.041Z,2.35
2022-07-29T03:35:22.839Z,1.98
2022-07-29T03:37:49.243Z,2.40
2022-07-29T03:40:23.394Z,2.15
2022-07-29T03:42:51.366Z,2.25
2022-07-29T03:45:19.891Z,2.08
2022-07-29T03:48:00.745Z,1.92
2022-07-29T03:50:29.541Z,2.35
2022-07-29T03:52:55.828Z,2.30
2022-07-29T03:55:22.262Z,2.22
2022-07-29T03:57:49.982Z,1.88
2022-07-29T04:00:16.476Z,2.17
2022-07-29T04:02:48.434Z,2.13
2022-07-29T04:05:15.823Z,2.30
2022-07-29T04:07:48.112Z,2.20
2022-07-29T04:10:16.018Z,2.47
2022-07-29T04:12:42.830Z,2.22
2022-07-29T04:15:09.423Z,1.92
2022-07-29T04:17:35.642Z,2.50
2022-07-29T04:20:01.753Z,2.05
2022-07-29T04:22:27.933Z,2.28
2022-07-29T04:24:54.041Z,1.83
2022-07-29T04:27:20.237Z,1.70
2022-07-29T04:29:56.480Z,1.92
2022-07-29T04:32:23.903Z,2.00
2022-07-29T04:34:50.016Z,2.13
2022-07-29T04:37:16.586Z,2.05
2022-07-29T04:39:42.748Z,1.90
2022-07-29T04:42:09.186Z,1.90
2022-07-29T04:44:37.214Z,2.38
2022-07-29T04:47:08.515Z,2.07
2022-07-29T04:49:34.726Z,1.92
2022-07-29T04:52:00.861Z,2.10
2022-07-29T04:54:27.310Z,1.83
2022-07-29T04:56:53.387Z,1.88
2022-07-29T04:59:19.754Z,1.90
2022-07-29T05:01:46.295Z,1.90
2022-07-29T05:04:12.620Z,2.13
2022-07-29T05:06:38.924Z,1.77
2022-07-29T05:09:05.162Z,1.67
2022-07-29T05:11:31.254Z,1.67
2022-07-29T05:13:57.328Z,1.98
2022-07-29T05:16:23.562Z,2.33
2022-07-29T05:18:49.690Z,2.35
2022-07-29T05:21:15.827Z,1.88
2022-07-29T05:23:41.960Z,2.22
2022-07-29T05:26:08.304Z,2.10
2022-07-29T05:28:38.073Z,2.13
2022-07-29T05:31:04.528Z,1.90
2022-07-29T05:33:35.515Z,2.10
2022-07-29T05:36:02.802Z,2.53
2022-07-29T05:38:29.473Z,2.20
2022-07-29T05:40:58.308Z,2.47
2022-07-29T05:43:24.495Z,1.88
2022-07-29T05:45:50.896Z,2.10
2022-07-29T05:48:17.305Z,2.20
2022-07-29T05:50:44.118Z,1.83
2022-07-29T05:53:19.661Z,1.60
2022-07-29T05:55:47.524Z,2.00
2022-07-29T05:58:13.603Z,2.15
2022-07-29T06:00:40.214Z,1.92
2022-07-29T06:03:06.311Z,1.80
2022-07-29T06:05:32.448Z,2.15
2022-07-29T06:07:58.775Z,2.53
2022-07-29T06:10:26.855Z,2.00
2022-07-29T06:12:53.665Z,2.10
2022-07-29T06:15:19.876Z,2.10
2022-07-29T06:18:00.720Z,2.10
2022-07-29T06:20:32.402Z,1.98
2022-07-29T06:22:59.618Z,3.15
2022-07-29T06:25:26.446Z,1.90
2022-07-29T06:27:52.802Z,1.73
2022-07-29T06:30:18.941Z,1.77
2022-07-29T06:32:45.270Z,1.90
2022-07-29T06:35:39.262Z,1.88
2022-07-29T06:37:58.031Z,1.90
2022-07-29T06:40:45.021Z,1.85
2022-07-29T06:43:11.410Z,2.00
2022-07-29T06:45:38.894Z,1.92
2022-07-29T06:48:05.403Z,1.58
2022-07-29T06:50:31.592Z,2.20
2022-07-29T06:52:57.646Z,2.10
2022-07-29T06:55:24.872Z,1.80
2022-07-29T06:57:51.667Z,1.88
2022-07-29T07:00:17.905Z,1.80
2022-07-29T07:02:44.058Z,2.70
2022-07-29T07:05:10.351Z,2.53
2022-07-29T07:07:36.462Z,2.08
2022-07-29T07:10:03.003Z,2.08
2022-07-29T07:12:29.457Z,2.50
2022-07-29T07:14:55.672Z,2.40
2022-07-29T07:17:21.765Z,2.40
2022-07-29T07:19:47.882Z,1.77
2022-07-29T07:22:13.979Z,2.20
2022-07-29T07:24:40.058Z,2.20
2022-07-29T07:27:06.168Z,2.28
2022-07-29T07:29:32.230Z,2.40
2022-07-29T07:32:00.891Z,2.67
2022-07-29T07:34:29.759Z,2.20
2022-07-29T07:36:56.122Z,1.80
2022-07-29T07:39:22.307Z,2.25
2022-07-29T07:41:48.667Z,1.85
2022-07-29T07:44:16.260Z,1.88
2022-07-29T07:46:47.027Z,1.90
2022-07-29T07:49:13.179Z,3.03
2022-07-29T07:51:39.354Z,2.55
2022-07-29T07:54:05.543Z,2.20
2022-07-29T07:56:35.106Z,2.20
2022-07-29T07:59:01.858Z,2.15
2022-07-29T08:01:28.505Z,2.13
2022-07-29T08:03:54.676Z,2.65
2022-07-29T08:06:20.787Z,2.60
2022-07-29T08:08:46.941Z,2.35
2022-07-29T08:11:13.864Z,2.40
2022-07-29T08:13:40.021Z,2.55
2022-07-29T08:16:14.078Z,2.72
2022-07-29T08:18:43.843Z,2.17
2022-07-29T08:21:10.126Z,2.38
2022-07-29T08:23:46.462Z,2.45
2022-07-29T08:26:15.135Z,3.40
2022-07-29T08:28:46.602Z,1.98
2022-07-29T08:31:13.924Z,2.55
2022-07-29T08:33:40.494Z,2.60
2022-07-29T08:36:07.277Z,2.20
2022-07-29T08:38:34.018Z,2.42
2022-07-29T08:41:03.858Z,2.28
2022-07-29T08:43:29.963Z,2.40
2022-07-29T08:45:56.906Z,2.28
2022-07-29T08:48:24.456Z,2.15
2022-07-29T08:50:56.197Z,1.85
2022-07-29T08:53:27.262Z,2.35
2022-07-29T08:55:54.170Z,2.40
2022-07-29T08:58:23.168Z,2.42
2022-07-29T09:00:56.216Z,2.17
2022-07-29T09:03:30.288Z,2.22
2022-07-29T09:05:56.876Z,2.00
2022-07-29T09:08:24.126Z,2.10
2022-07-29T09:10:51.498Z,2.10
2022-07-29T09:13:18.291Z,2.28
2022-07-29T09:15:45.387Z,2.30
2022-07-29T09:18:30.294Z,2.67
2022-07-29T09:21:15.697Z,2.10
2022-07-29T09:23:43.904Z,2.10
2022-07-29T09:26:10.038Z,1.95
2022-07-29T09:28:42.432Z,1.42
2022-07-29T09:31:09.130Z,2.13
2022-07-29T09:33:36.102Z,1.90
2022-07-29T09:36:07.846Z,1.73
2022-07-29T09:38:35.665Z,1.40
2022-07-29T09:41:06.007Z,1.58
2022-07-29T09:43:33.594Z,1.75
2022-07-29T09:46:13.383Z,1.50
2022-07-29T09:48:39.758Z,1.70
2022-07-29T09:51:07.147Z,1.90
2022-07-29T09:53:36.872Z,1.60
2022-07-29T09:56:04.714Z,1.67
2022-07-29T09:58:33.932Z,1.30
2022-07-29T10:01:00.345Z,1.73
2022-07-29T10:03:26.749Z,1.50
2022-07-29T10:06:10.536Z,1.75
2022-07-29T10:08:37.689Z,1.73
2022-07-29T10:11:15.869Z,2.17
2022-07-29T10:13:45.422Z,2.10
2022-07-29T10:16:12.511Z,1.85
2022-07-29T10:18:42.037Z,1.70
2022-07-29T10:21:09.904Z,1.58
2022-07-29T10:23:46.894Z,2.08
2022-07-29T10:26:14.951Z,1.92
2022-07-29T10:28:41.320Z,2.10
2022-07-29T10:31:14.191Z,1.60
2022-07-29T10:33:52.959Z,1.90
2022-07-29T10:36:37.796Z,1.73
2022-07-29T10:39:41.826Z,1.73
2022-07-29T10:42:33.635Z,1.63
2022-07-29T10:45:04.506Z,1.60
2022-07-29T10:50:04.713Z,1.80
2022-07-29T10:52:49.612Z,2.03
2022-07-29T10:55:38.740Z,2.47
2022-07-29T10:58:19.149Z,1.88
2022-07-29T11:00:49.350Z,2.10
2022-07-29T11:03:50.865Z,1.90
2022-07-29T11:06:26.920Z,2.25
2022-07-29T11:09:20.139Z,1.92
2022-07-29T11:11:51.349Z,1.65
2022-07-29T11:14:38.768Z,1.92
2022-07-29T11:17:08.796Z,1.83
2022-07-29T11:19:36.571Z,1.98
2022-07-29T11:22:08.993Z,1.70
2022-07-29T11:24:36.298Z,1.88
2022-07-29T11:27:14.610Z,2.58
2022-07-29T11:29:53.599Z,1.55
2022-07-29T11:32:22.755Z,1.30
2022-07-29T11:37:19.998Z,2.45
2022-07-29T11:40:00.245Z,2.00
2022-07-29T11:42:34.188Z,2.30
2022-07-29T11:45:40.366Z,2.10
2022-07-29T11:47:54.501Z,1.92
2022-07-29T11:50:36.666Z,1.70
2022-07-29T11:53:13.505Z,2.40
2022-07-29T11:55:51.889Z,2.35
2022-07-29T11:58:26.150Z,2.20
2022-07-29T12:00:55.602Z,2.10
2022-07-29T12:03:35.196Z,2.20
2022-07-29T12:06:17.373Z,2.38
2022-07-29T12:08:45.200Z,2.13
2022-07-29T12:11:20.437Z,2.70
2022-07-29T12:13:50.466Z,2.00
2022-07-29T12:16:27.961Z,2.10
2022-07-29T12:18:57.805Z,2.60
2022-07-29T12:21:25.723Z,2.17
2022-07-29T12:23:57.058Z,2.20
2022-07-29T12:26:28.281Z,2.55
2022-07-29T12:28:54.889Z,2.63
2022-07-29T12:31:42.882Z,2.33
2022-07-29T12:34:09.290Z,2.53
2022-07-29T12:36:36.530Z,2.45
2022-07-29T12:39:04.249Z,2.83
2022-07-29T12:41:30.715Z,2.55
2022-07-29T12:43:57.068Z,2.90
2022-07-29T12:46:23.241Z,2.67
2022-07-29T12:48:56.885Z,2.75
2022-07-29T12:51:38.000Z,2.58
2022-07-29T12:54:13.818Z,2.13
2022-07-29T12:56:43.218Z,2.83
2022-07-29T12:59:22.436Z,2.45
2022-07-29T13:01:51.455Z,2.33
2022-07-29T13:04:31.388Z,3.10
2022-07-29T13:07:12.076Z,2.58
2022-07-29T13:09:48.596Z,2.58
2022-07-29T13:12:15.177Z,2.45
2022-07-29T13:14:44.113Z,2.70
2022-07-29T13:17:18.507Z,2.78
2022-07-29T13:19:46.104Z,3.92
2022-07-29T13:22:20.485Z,2.70
2022-07-29T13:24:56.940Z,2.35
2022-07-29T13:27:33.230Z,2.65
2022-07-29T13:30:01.302Z,2.50
2022-07-29T13:32:29.247Z,2.65
2022-07-29T13:35:00.550Z,2.60
2022-07-29T13:37:29.818Z,2.20
2022-07-29T13:39:57.005Z,2.40
2022-07-29T13:42:25.145Z,2.20
2022-07-29T13:44:52.072Z,2.70
2022-07-29T13:47:19.376Z,2.13
2022-07-29T13:49:45.712Z,2.15
2022-07-29T13:52:16.367Z,2.00
2022-07-29T13:54:43.819Z,2.60
2022-07-29T13:57:11.804Z,1.95
2022-07-29T13:59:42.201Z,2.15
2022-07-29T14:02:09.561Z,2.50
2022-07-29T14:04:36.123Z,2.53
2022-07-29T14:07:06.209Z,2.40
2022-07-29T14:09:37.464Z,2.20
2022-07-29T14:12:08.753Z,2.35
2022-07-29T14:14:36.645Z,1.95
2022-07-29T14:17:03.574Z,1.63
2022-07-29T14:19:30.056Z,2.05
2022-07-29T14:21:56.365Z,2.03
2022-07-29T14:24:24.372Z,2.17
2022-07-29T14:26:51.959Z,2.00
2022-07-29T14:29:18.243Z,2.17
2022-07-29T14:31:44.397Z,2.13
2022-07-29T14:34:11.448Z,1.90
2022-07-29T14:36:37.545Z,1.90
2022-07-29T14:39:04.407Z,1.63
2022-07-29T14:41:31.247Z,1.30
2022-07-29T14:43:58.058Z,1.67
2022-07-29T14:46:24.970Z,1.75
2022-07-29T14:48:51.232Z,1.65
2022-07-29T14:51:17.690Z,1.52
2022-07-29T14:53:43.932Z,1.92
2022-07-29T14:56:34.961Z,1.70
2022-07-29T14:58:59.453Z,1.98
2022-07-29T15:01:25.630Z,1.73
2022-07-29T15:03:53.955Z,1.42
2022-07-29T15:06:22.959Z,1.42
2022-07-29T15:08:49.138Z,1.23
2022-07-29T15:11:15.205Z,1.80
2022-07-29T15:13:41.330Z,1.10
2022-07-29T15:16:07.806Z,1.50
2022-07-29T15:18:34.044Z,1.20
2022-07-29T15:21:02.465Z,1.10
2022-07-29T15:23:28.618Z,1.30
2022-07-29T15:25:54.745Z,1.58
2022-07-29T15:28:20.949Z,1.30
2022-07-29T15:30:47.563Z,1.48
2022-07-29T15:33:13.634Z,1.90
2022-07-29T15:35:40.837Z,0.88
2022-07-29T15:38:07.374Z,1.00
2022-07-29T15:40:33.596Z,0.90
2022-07-29T15:43:05.812Z,1.80
2022-07-29T15:46:08.187Z,2.20
2022-07-29T15:48:38.992Z,2.30
2022-07-29T15:53:31.337Z,1.33
2022-07-29T15:55:59.263Z,1.02
2022-07-29T15:58:25.381Z,1.50
2022-07-29T16:00:51.531Z,1.35
2022-07-29T16:03:17.941Z,1.48
2022-07-29T16:05:44.808Z,1.05
2022-07-29T16:08:11.038Z,1.35
2022-07-29T16:10:37.137Z,1.17
2022-07-29T16:13:03.368Z,1.00
2022-07-29T16:15:29.467Z,1.50
2022-07-29T16:17:56.029Z,1.20
2022-07-29T16:20:22.363Z,1.23
2022-07-29T16:22:48.792Z,1.38
2022-07-29T16:25:14.902Z,1.70
2022-07-29T16:27:43.825Z,1.65
2022-07-29T16:30:10.614Z,1.65
2022-07-29T16:32:37.165Z,2.00
2022-07-29T16:35:05.172Z,2.13
2022-07-29T16:37:34.690Z,2.13
2022-07-29T16:40:01.728Z,1.90
2022-07-29T16:42:45.438Z,2.05
2022-07-29T16:45:13.302Z,2.20
2022-07-29T16:47:40.201Z,1.50
2022-07-29T16:50:06.914Z,1.80
2022-07-29T16:52:33.160Z,1.80
2022-07-29T16:54:59.318Z,1.73
2022-07-29T16:57:25.477Z,1.73
2022-07-29T16:59:51.791Z,2.08
2022-07-29T17:02:17.998Z,3.45
2022-07-29T17:04:44.144Z,1.77
2022-07-29T17:07:10.336Z,2.00
2022-07-29T17:09:36.663Z,1.60
2022-07-29T17:12:02.952Z,1.52
2022-07-29T17:14:31.052Z,2.08
2022-07-29T17:17:01.092Z,1.67
2022-07-29T17:19:30.166Z,1.50
2022-07-29T17:22:04.653Z,1.77
2022-07-29T17:24:33.380Z,1.90
2022-07-29T17:26:59.822Z,1.33
2022-07-29T17:29:26.457Z,2.55
2022-07-29T17:31:52.670Z,1.60
2022-07-29T17:34:20.540Z,1.90
2022-07-29T17:36:46.700Z,2.10
2022-07-29T17:39:12.836Z,1.58
2022-07-29T17:41:44.138Z,1.83
2022-07-29T17:44:10.616Z,1.80
2022-07-29T17:46:36.768Z,1.70
2022-07-29T17:49:03.829Z,1.63
2022-07-29T17:51:30.309Z,2.00
2022-07-29T17:53:58.028Z,1.52
2022-07-29T17:56:26.002Z,1.85
2022-07-29T17:58:52.500Z,1.90
2022-07-29T18:01:18.956Z,1.83
2022-07-29T18:03:45.160Z,1.77
2022-07-29T18:06:11.444Z,2.20
2022-07-29T18:08:39.506Z,1.80
2022-07-29T18:11:05.906Z,2.03
2022-07-29T18:13:32.022Z,2.50
2022-07-29T18:16:00.463Z,1.70
2022-07-29T18:18:27.379Z,1.70
2022-07-29T18:20:53.691Z,2.58
2022-07-29T18:23:20.180Z,2.92
2022-07-29T18:25:47.593Z,1.95
2022-07-29T18:28:14.102Z,1.63
2022-07-29T18:30:41.813Z,2.13
2022-07-29T18:33:22.642Z,1.92
2022-07-29T18:38:39.056Z,2.88
2022-07-29T18:41:05.218Z,2.20
2022-07-29T18:43:31.284Z,2.10
2022-07-29T18:45:57.715Z,2.58
2022-07-29T18:48:23.886Z,4.47
2022-07-29T18:50:50.127Z,2.30
2022-07-29T18:53:16.690Z,2.83
2022-07-29T18:55:44.648Z,2.63
2022-07-29T18:58:10.892Z,2.20
2022-07-29T19:00:37.525Z,2.80
2022-07-29T19:03:03.931Z,2.20
2022-07-29T19:05:30.183Z,2.20
2022-07-29T19:07:56.336Z,2.70
2022-07-29T19:10:22.596Z,2.38
2022-07-29T19:12:49.056Z,3.10
2022-07-29T19:15:19.879Z,2.78
2022-07-29T19:17:47.755Z,3.10
2022-07-29T19:20:14.987Z,2.97
2022-07-29T19:22:41.386Z,3.60
2022-07-29T19:25:08.568Z,3.05
2022-07-29T19:27:34.729Z,3.15
2022-07-29T19:30:02.598Z,2.80
2022-07-29T19:32:28.988Z,2.72
2022-07-29T19:35:13.545Z,3.42
2022-07-29T19:37:39.696Z,3.28
2022-07-29T19:40:06.553Z,3.20
2022-07-29T19:42:32.904Z,3.38
2022-07-29T19:44:59.602Z,3.13
2022-07-29T19:47:25.659Z,3.20
2022-07-29T19:49:51.764Z,4.60
2022-07-29T19:52:17.911Z,4.50
2022-07-29T19:54:44.311Z,3.58
2022-07-29T19:57:10.439Z,3.85
2022-07-29T19:59:36.806Z,3.70
2022-07-29T20:02:03.347Z,4.18
2022-07-29T20:04:30.117Z,4.20
2022-07-29T20:07:00.845Z,3.75
2022-07-29T20:09:27.566Z,3.58
2022-07-29T20:11:53.831Z,3.35
2022-07-29T20:14:20.007Z,3.00
2022-07-29T20:16:46.174Z,3.65
2022-07-29T20:19:12.312Z,3.25
2022-07-29T20:21:38.396Z,3.03
2022-07-29T20:24:04.941Z,3.15
2022-07-29T20:26:31.452Z,4.00
2022-07-29T20:28:57.605Z,3.40
2022-07-29T20:31:24.124Z,3.83
2022-07-29T20:33:50.542Z,3.50
2022-07-29T20:36:18.129Z,3.55
2022-07-29T20:38:44.208Z,3.47
2022-07-29T20:41:10.328Z,3.70
2022-07-29T20:43:39.173Z,3.50
2022-07-29T20:46:05.888Z,3.47
2022-07-29T20:48:32.379Z,3.03
2022-07-29T20:50:58.829Z,3.45
2022-07-29T20:53:25.086Z,3.88
2022-07-29T20:55:51.907Z,3.42
2022-07-29T20:58:19.339Z,3.10
2022-07-29T21:00:46.007Z,3.80
2022-07-29T21:03:12.145Z,3.20
2022-07-29T21:05:40.160Z,4.28
2022-07-29T21:08:09.732Z,3.92
2022-07-29T21:10:36.185Z,3.75
2022-07-29T21:13:02.628Z,4.10
2022-07-29T21:15:29.696Z,4.13
2022-07-29T21:18:01.912Z,4.07
2022-07-29T21:20:30.472Z,4.50
2022-07-29T21:22:57.547Z,3.88
2022-07-29T21:25:26.059Z,3.78
2022-07-29T21:28:18.376Z,3.72
2022-07-29T21:30:44.484Z,3.88
2022-07-29T21:33:10.751Z,4.00
2022-07-29T21:36:06.908Z,3.60
2022-07-29T21:38:22.974Z,3.90
2022-07-29T21:40:51.405Z,4.15
2022-07-29T21:43:18.481Z,4.13
2022-07-29T21:45:49.418Z,4.15
2022-07-29T21:48:27.939Z,3.67
2022-07-29T21:50:54.246Z,3.95
2022-07-29T21:53:22.894Z,4.25
2022-07-29T21:55:50.015Z,4.32
2022-07-29T21:58:17.457Z,3.60
2022-07-29T22:00:43.887Z,3.83
2022-07-29T22:03:10.218Z,3.08
2022-07-29T22:05:36.375Z,3.63
2022-07-29T22:08:02.602Z,4.05
2022-07-29T22:10:30.015Z,3.72
2022-07-29T22:12:58.328Z,3.40
2022-07-29T22:15:25.013Z,3.47
2022-07-29T22:17:51.425Z,3.50
2022-07-29T22:20:17.685Z,3.30
2022-07-29T22:22:44.274Z,3.47
2022-07-29T22:25:10.794Z,3.30
2022-07-29T22:27:37.813Z,3.28
2022-07-29T22:30:06.245Z,3.95
2022-07-29T22:32:33.336Z,3.50
2022-07-29T22:34:59.650Z,3.63
2022-07-29T22:37:25.882Z,3.05
2022-07-29T22:39:52.256Z,3.75
2022-07-29T22:42:18.333Z,4.07
2022-07-29T22:44:44.589Z,4.03
2022-07-29T22:47:10.655Z,4.05
2022-07-29T22:49:36.730Z,3.90
2022-07-29T22:52:02.973Z,4.20
2022-07-29T22:54:29.207Z,4.20
2022-07-29T22:56:55.739Z,4.45
2022-07-29T22:59:22.086Z,3.50
2022-07-29T23:01:48.319Z,3.72
2022-07-29T23:04:14.568Z,3.00
2022-07-29T23:06:40.661Z,4.10
2022-07-29T23:09:07.163Z,3.83
2022-07-29T23:11:33.596Z,3.67
2022-07-29T23:13:59.633Z,4.30
2022-07-29T23:16:26.778Z,3.63
2022-07-29T23:18:53.683Z,4.28
2022-07-29T23:21:22.950Z,4.10
2022-07-29T23:23:49.038Z,3.80
2022-07-29T23:26:16.195Z,4.25
2022-07-29T23:28:45.698Z,3.95
2022-07-29T23:31:12.796Z,4.07
2022-07-29T23:33:40.277Z,4.43
2022-07-29T23:36:06.458Z,3.38
2022-07-29T23:38:32.944Z,4.70
2022-07-29T23:41:00.853Z,3.95
2022-07-29T23:43:28.422Z,4.22
2022-07-29T23:45:55.507Z,4.55
2022-07-29T23:48:24.732Z,4.07
2022-07-29T23:50:51.009Z,4.07
2022-07-29T23:53:17.134Z,4.05
2022-07-29T23:55:43.584Z,4.38
2022-07-29T23:58:09.681Z,4.05
